sensor_id;sensor_type;location;lat;lon;timestamp;P1;durP1;ratioP1;P2;durP2;ratioP2
1563;SDS011;775;51.958;7.976;2023-03-14T00:02:25;11.00;;;1.80;;
1563;SDS011;775;51.958;7.976;2023-03-14T00:04:53;16.83;;;1.97;;
1563;SDS011;775;51.958;7.976;2023-03-14T00:07:21;12.83;;;2.17;;
1563;SDS011;775;51.958;7.976;2023-03-14T00:09:50;13.93;;;2.23;;
1563;SDS011;775;51.958;7.976;2023-03-14T00:12:18;13.77;;;2.50;;
1563;SDS011;775;51.958;7.976;2023-03-14T00:14:45;11.40;;;2.10;;
1563;SDS011;775;51.958;7.976;2023-03-14T00:17:12;12.73;;;1.87;;
1563;SDS011;775;51.958;7.976;2023-03-14T00:19:39;11.70;;;2.00;;
1563;SDS011;775;51.958;7.976;2023-03-14T00:22:06;15.23;;;2.57;;
1563;SDS011;775;51.958;7.976;2023-03-14T00:24:33;12.70;;;2.00;;
1563;SDS011;775;51.958;7.976;2023-03-14T00:27:02;12.43;;;2.00;;
1563;SDS011;775;51.958;7.976;2023-03-14T00:29:29;14.03;;;2.20;;
1563;SDS011;775;51.958;7.976;2023-03-14T00:31:56;12.73;;;2.03;;
1563;SDS011;775;51.958;7.976;2023-03-14T00:34:23;11.80;;;2.13;;
1563;SDS011;775;51.958;7.976;2023-03-14T00:36:50;12.47;;;2.70;;
1563;SDS011;775;51.958;7.976;2023-03-14T00:39:17;13.20;;;2.40;;
1563;SDS011;775;51.958;7.976;2023-03-14T00:41:44;11.27;;;1.80;;
1563;SDS011;775;51.958;7.976;2023-03-14T00:44:12;13.87;;;2.47;;
1563;SDS011;775;51.958;7.976;2023-03-14T00:46:39;12.97;;;2.13;;
1563;SDS011;775;51.958;7.976;2023-03-14T00:49:06;13.90;;;2.40;;
1563;SDS011;775;51.958;7.976;2023-03-14T00:51:34;12.80;;;2.60;;
1563;SDS011;775;51.958;7.976;2023-03-14T00:54:01;14.00;;;2.27;;
1563;SDS011;775;51.958;7.976;2023-03-14T00:56:28;12.20;;;2.30;;
1563;SDS011;775;51.958;7.976;2023-03-14T00:58:55;12.00;;;2.00;;
1563;SDS011;775;51.958;7.976;2023-03-14T01:01:24;15.33;;;2.57;;
1563;SDS011;775;51.958;7.976;2023-03-14T01:03:51;14.00;;;2.57;;
1563;SDS011;775;51.958;7.976;2023-03-14T01:06:19;13.57;;;2.43;;
1563;SDS011;775;51.958;7.976;2023-03-14T01:08:46;13.83;;;2.40;;
1563;SDS011;775;51.958;7.976;2023-03-14T01:11:14;11.80;;;2.40;;
1563;SDS011;775;51.958;7.976;2023-03-14T01:13:42;12.43;;;2.07;;
1563;SDS011;775;51.958;7.976;2023-03-14T01:16:10;13.33;;;2.53;;
1563;SDS011;775;51.958;7.976;2023-03-14T01:18:39;13.97;;;2.17;;
1563;SDS011;775;51.958;7.976;2023-03-14T01:21:09;12.60;;;1.90;;
1563;SDS011;775;51.958;7.976;2023-03-14T01:23:37;11.10;;;2.27;;
1563;SDS011;775;51.958;7.976;2023-03-14T01:26:05;11.67;;;1.87;;
1563;SDS011;775;51.958;7.976;2023-03-14T01:28:34;12.87;;;2.33;;
1563;SDS011;775;51.958;7.976;2023-03-14T01:31:02;18.33;;;2.33;;
1563;SDS011;775;51.958;7.976;2023-03-14T01:33:29;14.90;;;2.20;;
1563;SDS011;775;51.958;7.976;2023-03-14T01:35:57;15.03;;;2.40;;
1563;SDS011;775;51.958;7.976;2023-03-14T01:38:27;12.93;;;2.27;;
1563;SDS011;775;51.958;7.976;2023-03-14T01:40:54;13.00;;;2.10;;
1563;SDS011;775;51.958;7.976;2023-03-14T01:43:21;12.47;;;1.80;;
1563;SDS011;775;51.958;7.976;2023-03-14T01:46:01;11.40;;;1.87;;
1563;SDS011;775;51.958;7.976;2023-03-14T01:48:39;14.13;;;2.40;;
1563;SDS011;775;51.958;7.976;2023-03-14T01:51:09;12.07;;;1.67;;
1563;SDS011;775;51.958;7.976;2023-03-14T01:53:37;12.60;;;1.67;;
1563;SDS011;775;51.958;7.976;2023-03-14T01:56:05;11.33;;;2.07;;
1563;SDS011;775;51.958;7.976;2023-03-14T01:58:32;13.37;;;3.00;;
1563;SDS011;775;51.958;7.976;2023-03-14T02:01:00;12.43;;;1.93;;
1563;SDS011;775;51.958;7.976;2023-03-14T02:03:28;12.70;;;1.60;;
1563;SDS011;775;51.958;7.976;2023-03-14T02:05:56;12.83;;;1.80;;
1563;SDS011;775;51.958;7.976;2023-03-14T02:08:27;12.67;;;2.10;;
1563;SDS011;775;51.958;7.976;2023-03-14T02:10:54;13.57;;;1.50;;
1563;SDS011;775;51.958;7.976;2023-03-14T02:13:22;17.80;;;1.97;;
1563;SDS011;775;51.958;7.976;2023-03-14T02:15:49;11.00;;;1.37;;
1563;SDS011;775;51.958;7.976;2023-03-14T02:18:16;12.50;;;1.70;;
1563;SDS011;775;51.958;7.976;2023-03-14T02:20:45;12.67;;;1.80;;
1563;SDS011;775;51.958;7.976;2023-03-14T02:23:15;12.10;;;1.40;;
1563;SDS011;775;51.958;7.976;2023-03-14T02:25:45;12.43;;;1.70;;
1563;SDS011;775;51.958;7.976;2023-03-14T02:28:16;13.07;;;1.30;;
1563;SDS011;775;51.958;7.976;2023-03-14T02:30:43;12.20;;;1.70;;
1563;SDS011;775;51.958;7.976;2023-03-14T02:33:11;11.10;;;1.10;;
1563;SDS011;775;51.958;7.976;2023-03-14T02:35:40;12.33;;;1.50;;
1563;SDS011;775;51.958;7.976;2023-03-14T02:38:10;10.80;;;1.07;;
1563;SDS011;775;51.958;7.976;2023-03-14T02:40:37;10.50;;;1.33;;
1563;SDS011;775;51.958;7.976;2023-03-14T02:43:04;12.33;;;1.93;;
1563;SDS011;775;51.958;7.976;2023-03-14T02:45:35;11.30;;;1.30;;
1563;SDS011;775;51.958;7.976;2023-03-14T02:48:04;10.30;;;1.30;;
1563;SDS011;775;51.958;7.976;2023-03-14T02:50:33;15.07;;;1.40;;
1563;SDS011;775;51.958;7.976;2023-03-14T02:53:00;11.50;;;1.40;;
1563;SDS011;775;51.958;7.976;2023-03-14T02:55:27;11.23;;;1.40;;
1563;SDS011;775;51.958;7.976;2023-03-14T02:57:54;11.93;;;1.93;;
1563;SDS011;775;51.958;7.976;2023-03-14T03:00:21;13.13;;;1.37;;
1563;SDS011;775;51.958;7.976;2023-03-14T03:02:50;12.10;;;1.20;;
1563;SDS011;775;51.958;7.976;2023-03-14T03:05:17;11.20;;;1.60;;
1563;SDS011;775;51.958;7.976;2023-03-14T03:07:44;16.53;;;2.13;;
1563;SDS011;775;51.958;7.976;2023-03-14T03:10:11;11.90;;;1.60;;
1563;SDS011;775;51.958;7.976;2023-03-14T03:12:38;14.67;;;1.47;;
1563;SDS011;775;51.958;7.976;2023-03-14T03:15:06;12.07;;;1.30;;
1563;SDS011;775;51.958;7.976;2023-03-14T03:17:33;12.97;;;1.73;;
1563;SDS011;775;51.958;7.976;2023-03-14T03:20:02;11.63;;;1.30;;
1563;SDS011;775;51.958;7.976;2023-03-14T03:22:33;11.63;;;1.50;;
1563;SDS011;775;51.958;7.976;2023-03-14T03:25:00;16.10;;;2.00;;
1563;SDS011;775;51.958;7.976;2023-03-14T03:27:29;11.00;;;1.20;;
1563;SDS011;775;51.958;7.976;2023-03-14T03:29:56;14.77;;;1.43;;
1563;SDS011;775;51.958;7.976;2023-03-14T03:32:23;11.67;;;1.77;;
1563;SDS011;775;51.958;7.976;2023-03-14T03:34:50;11.87;;;1.50;;
1563;SDS011;775;51.958;7.976;2023-03-14T03:37:19;11.10;;;1.97;;
1563;SDS011;775;51.958;7.976;2023-03-14T03:39:46;11.50;;;1.53;;
1563;SDS011;775;51.958;7.976;2023-03-14T03:42:13;11.63;;;1.80;;
1563;SDS011;775;51.958;7.976;2023-03-14T03:44:40;13.07;;;1.63;;
1563;SDS011;775;51.958;7.976;2023-03-14T03:47:07;13.83;;;2.03;;
1563;SDS011;775;51.958;7.976;2023-03-14T03:49:34;21.83;;;2.37;;
1563;SDS011;775;51.958;7.976;2023-03-14T03:52:01;12.80;;;1.63;;
1563;SDS011;775;51.958;7.976;2023-03-14T03:54:30;12.27;;;1.90;;
1563;SDS011;775;51.958;7.976;2023-03-14T03:56:57;10.90;;;1.60;;
1563;SDS011;775;51.958;7.976;2023-03-14T03:59:24;11.63;;;1.87;;
1563;SDS011;775;51.958;7.976;2023-03-14T04:01:51;14.93;;;1.83;;
1563;SDS011;775;51.958;7.976;2023-03-14T04:04:18;13.60;;;1.70;;
1563;SDS011;775;51.958;7.976;2023-03-14T04:06:45;13.50;;;1.97;;
1563;SDS011;775;51.958;7.976;2023-03-14T04:09:12;14.90;;;1.90;;
1563;SDS011;775;51.958;7.976;2023-03-14T04:11:40;16.93;;;1.87;;
1563;SDS011;775;51.958;7.976;2023-03-14T04:14:07;15.77;;;2.17;;
1563;SDS011;775;51.958;7.976;2023-03-14T04:16:35;14.00;;;2.10;;
1563;SDS011;775;51.958;7.976;2023-03-14T04:19:02;12.43;;;1.77;;
1563;SDS011;775;51.958;7.976;2023-03-14T04:21:29;13.63;;;2.23;;
1563;SDS011;775;51.958;7.976;2023-03-14T04:23:56;14.20;;;1.70;;
1563;SDS011;775;51.958;7.976;2023-03-14T04:26:23;12.17;;;1.63;;
1563;SDS011;775;51.958;7.976;2023-03-14T04:28:52;14.93;;;1.70;;
1563;SDS011;775;51.958;7.976;2023-03-14T04:31:20;12.27;;;1.33;;
1563;SDS011;775;51.958;7.976;2023-03-14T04:33:47;13.93;;;1.77;;
1563;SDS011;775;51.958;7.976;2023-03-14T04:36:14;19.43;;;1.90;;
1563;SDS011;775;51.958;7.976;2023-03-14T04:38:41;13.70;;;2.40;;
1563;SDS011;775;51.958;7.976;2023-03-14T04:41:08;20.83;;;3.97;;
1563;SDS011;775;51.958;7.976;2023-03-14T04:43:35;14.20;;;2.80;;
1563;SDS011;775;51.958;7.976;2023-03-14T04:46:04;14.80;;;2.83;;
1563;SDS011;775;51.958;7.976;2023-03-14T04:48:31;17.43;;;3.20;;
1563;SDS011;775;51.958;7.976;2023-03-14T04:50:58;14.20;;;2.33;;
1563;SDS011;775;51.958;7.976;2023-03-14T04:53:26;16.13;;;2.80;;
1563;SDS011;775;51.958;7.976;2023-03-14T04:55:54;14.50;;;1.80;;
1563;SDS011;775;51.958;7.976;2023-03-14T04:58:21;14.10;;;2.30;;
1563;SDS011;775;51.958;7.976;2023-03-14T05:00:48;15.20;;;2.03;;
1563;SDS011;775;51.958;7.976;2023-03-14T05:03:17;15.37;;;2.20;;
1563;SDS011;775;51.958;7.976;2023-03-14T05:05:44;17.27;;;2.10;;
1563;SDS011;775;51.958;7.976;2023-03-14T05:08:12;11.90;;;1.90;;
1563;SDS011;775;51.958;7.976;2023-03-14T05:10:39;16.33;;;2.50;;
1563;SDS011;775;51.958;7.976;2023-03-14T05:13:06;15.53;;;2.13;;
1563;SDS011;775;51.958;7.976;2023-03-14T05:15:33;12.87;;;1.73;;
1563;SDS011;775;51.958;7.976;2023-03-14T05:18:00;19.90;;;2.40;;
1563;SDS011;775;51.958;7.976;2023-03-14T05:20:29;14.83;;;2.60;;
1563;SDS011;775;51.958;7.976;2023-03-14T05:22:56;11.40;;;1.63;;
1563;SDS011;775;51.958;7.976;2023-03-14T05:25:24;16.93;;;1.73;;
1563;SDS011;775;51.958;7.976;2023-03-14T05:27:52;12.93;;;2.10;;
1563;SDS011;775;51.958;7.976;2023-03-14T05:30:20;17.60;;;2.23;;
1563;SDS011;775;51.958;7.976;2023-03-14T05:32:47;13.33;;;1.80;;
1563;SDS011;775;51.958;7.976;2023-03-14T05:35:14;15.10;;;2.20;;
1563;SDS011;775;51.958;7.976;2023-03-14T05:37:43;14.53;;;1.80;;
1563;SDS011;775;51.958;7.976;2023-03-14T05:40:10;13.90;;;1.83;;
1563;SDS011;775;51.958;7.976;2023-03-14T05:42:37;16.80;;;1.90;;
1563;SDS011;775;51.958;7.976;2023-03-14T05:45:05;13.10;;;2.33;;
1563;SDS011;775;51.958;7.976;2023-03-14T05:47:32;11.47;;;1.43;;
1563;SDS011;775;51.958;7.976;2023-03-14T05:49:59;11.97;;;1.53;;
1563;SDS011;775;51.958;7.976;2023-03-14T05:52:26;11.87;;;1.40;;
1563;SDS011;775;51.958;7.976;2023-03-14T05:54:54;10.80;;;1.63;;
1563;SDS011;775;51.958;7.976;2023-03-14T05:57:22;10.70;;;1.43;;
1563;SDS011;775;51.958;7.976;2023-03-14T05:59:49;11.33;;;1.10;;
1563;SDS011;775;51.958;7.976;2023-03-14T06:02:16;10.40;;;1.00;;
1563;SDS011;775;51.958;7.976;2023-03-14T06:04:43;10.90;;;1.30;;
1563;SDS011;775;51.958;7.976;2023-03-14T06:07:10;10.07;;;0.97;;
1563;SDS011;775;51.958;7.976;2023-03-14T06:09:37;10.77;;;1.40;;
1563;SDS011;775;51.958;7.976;2023-03-14T06:12:06;11.43;;;1.20;;
1563;SDS011;775;51.958;7.976;2023-03-14T06:14:33;11.83;;;1.23;;
1563;SDS011;775;51.958;7.976;2023-03-14T06:17:01;13.30;;;1.40;;
1563;SDS011;775;51.958;7.976;2023-03-14T06:19:28;10.33;;;1.13;;
1563;SDS011;775;51.958;7.976;2023-03-14T06:21:55;10.27;;;1.13;;
1563;SDS011;775;51.958;7.976;2023-03-14T06:24:22;11.70;;;1.20;;
1563;SDS011;775;51.958;7.976;2023-03-14T06:26:49;12.23;;;1.30;;
1563;SDS011;775;51.958;7.976;2023-03-14T06:29:17;10.30;;;1.00;;
1563;SDS011;775;51.958;7.976;2023-03-14T06:31:44;13.00;;;1.20;;
1563;SDS011;775;51.958;7.976;2023-03-14T06:34:11;11.67;;;1.17;;
1563;SDS011;775;51.958;7.976;2023-03-14T06:36:38;11.87;;;1.33;;
1563;SDS011;775;51.958;7.976;2023-03-14T06:39:06;12.00;;;1.50;;
1563;SDS011;775;51.958;7.976;2023-03-14T06:41:33;11.70;;;1.30;;
1563;SDS011;775;51.958;7.976;2023-03-14T06:44:00;12.20;;;1.30;;
1563;SDS011;775;51.958;7.976;2023-03-14T06:46:28;10.40;;;1.30;;
1563;SDS011;775;51.958;7.976;2023-03-14T06:48:55;12.97;;;1.40;;
1563;SDS011;775;51.958;7.976;2023-03-14T06:51:22;10.90;;;1.20;;
1563;SDS011;775;51.958;7.976;2023-03-14T06:53:49;11.50;;;2.10;;
1563;SDS011;775;51.958;7.976;2023-03-14T06:56:17;12.50;;;1.57;;
1563;SDS011;775;51.958;7.976;2023-03-14T06:58:44;10.17;;;1.00;;
1563;SDS011;775;51.958;7.976;2023-03-14T07:01:15;10.07;;;1.03;;
1563;SDS011;775;51.958;7.976;2023-03-14T07:03:45;11.47;;;1.03;;
1563;SDS011;775;51.958;7.976;2023-03-14T07:06:12;10.70;;;1.30;;
1563;SDS011;775;51.958;7.976;2023-03-14T07:08:39;10.20;;;1.30;;
1563;SDS011;775;51.958;7.976;2023-03-14T07:11:06;9.97;;;1.00;;
1563;SDS011;775;51.958;7.976;2023-03-14T07:13:35;11.90;;;1.07;;
1563;SDS011;775;51.958;7.976;2023-03-14T07:16:02;11.00;;;1.30;;
1563;SDS011;775;51.958;7.976;2023-03-14T07:18:31;11.57;;;1.30;;
1563;SDS011;775;51.958;7.976;2023-03-14T07:20:59;11.97;;;1.47;;
1563;SDS011;775;51.958;7.976;2023-03-14T07:23:27;10.50;;;1.40;;
1563;SDS011;775;51.958;7.976;2023-03-14T07:25:54;11.30;;;1.47;;
1563;SDS011;775;51.958;7.976;2023-03-14T07:28:21;11.50;;;1.40;;
1563;SDS011;775;51.958;7.976;2023-03-14T07:30:49;10.37;;;1.63;;
1563;SDS011;775;51.958;7.976;2023-03-14T07:33:16;10.23;;;1.23;;
1563;SDS011;775;51.958;7.976;2023-03-14T07:35:43;10.50;;;1.70;;
1563;SDS011;775;51.958;7.976;2023-03-14T07:38:11;10.90;;;1.43;;
1563;SDS011;775;51.958;7.976;2023-03-14T07:40:38;11.43;;;2.67;;
1563;SDS011;775;51.958;7.976;2023-03-14T07:43:05;10.97;;;2.20;;
1563;SDS011;775;51.958;7.976;2023-03-14T07:45:33;10.83;;;2.17;;
1563;SDS011;775;51.958;7.976;2023-03-14T07:48:00;11.63;;;2.07;;
1563;SDS011;775;51.958;7.976;2023-03-14T07:50:27;13.03;;;2.67;;
1563;SDS011;775;51.958;7.976;2023-03-14T07:52:54;11.40;;;2.60;;
1563;SDS011;775;51.958;7.976;2023-03-14T07:55:22;11.57;;;2.40;;
1563;SDS011;775;51.958;7.976;2023-03-14T07:57:50;10.70;;;2.20;;
1563;SDS011;775;51.958;7.976;2023-03-14T08:00:17;11.40;;;2.50;;
1563;SDS011;775;51.958;7.976;2023-03-14T08:02:44;11.10;;;1.93;;
1563;SDS011;775;51.958;7.976;2023-03-14T08:05:11;12.50;;;2.50;;
1563;SDS011;775;51.958;7.976;2023-03-14T08:07:38;10.90;;;2.33;;
1563;SDS011;775;51.958;7.976;2023-03-14T08:10:06;11.73;;;2.37;;
1563;SDS011;775;51.958;7.976;2023-03-14T08:12:34;12.00;;;2.20;;
1563;SDS011;775;51.958;7.976;2023-03-14T08:15:02;11.20;;;2.50;;
1563;SDS011;775;51.958;7.976;2023-03-14T08:17:29;12.50;;;2.70;;
1563;SDS011;775;51.958;7.976;2023-03-14T08:19:56;11.60;;;2.37;;
1563;SDS011;775;51.958;7.976;2023-03-14T08:22:23;13.80;;;3.10;;
1563;SDS011;775;51.958;7.976;2023-03-14T08:24:50;12.40;;;2.53;;
1563;SDS011;775;51.958;7.976;2023-03-14T08:27:17;15.27;;;2.73;;
1563;SDS011;775;51.958;7.976;2023-03-14T08:29:45;11.67;;;2.83;;
1563;SDS011;775;51.958;7.976;2023-03-14T08:32:12;11.47;;;2.80;;
1563;SDS011;775;51.958;7.976;2023-03-14T08:34:39;11.80;;;2.90;;
1563;SDS011;775;51.958;7.976;2023-03-14T08:37:06;11.07;;;2.60;;
1563;SDS011;775;51.958;7.976;2023-03-14T08:39:34;11.50;;;2.53;;
1563;SDS011;775;51.958;7.976;2023-03-14T08:42:01;11.43;;;2.83;;
1563;SDS011;775;51.958;7.976;2023-03-14T08:44:28;11.80;;;2.43;;
1563;SDS011;775;51.958;7.976;2023-03-14T08:46:56;11.53;;;2.60;;
1563;SDS011;775;51.958;7.976;2023-03-14T08:49:23;12.60;;;3.30;;
1563;SDS011;775;51.958;7.976;2023-03-14T08:51:51;11.10;;;2.50;;
1563;SDS011;775;51.958;7.976;2023-03-14T08:54:18;11.30;;;3.00;;
1563;SDS011;775;51.958;7.976;2023-03-14T08:56:45;11.60;;;2.90;;
1563;SDS011;775;51.958;7.976;2023-03-14T08:59:12;11.27;;;2.60;;
1563;SDS011;775;51.958;7.976;2023-03-14T09:01:39;11.23;;;2.40;;
1563;SDS011;775;51.958;7.976;2023-03-14T09:04:07;11.37;;;2.90;;
1563;SDS011;775;51.958;7.976;2023-03-14T09:06:34;13.07;;;3.10;;
1563;SDS011;775;51.958;7.976;2023-03-14T09:09:02;11.50;;;3.50;;
1563;SDS011;775;51.958;7.976;2023-03-14T09:11:29;12.03;;;3.07;;
1563;SDS011;775;51.958;7.976;2023-03-14T09:13:56;15.83;;;2.90;;
1563;SDS011;775;51.958;7.976;2023-03-14T09:16:23;12.30;;;2.77;;
1563;SDS011;775;51.958;7.976;2023-03-14T09:18:50;12.43;;;3.60;;
1563;SDS011;775;51.958;7.976;2023-03-14T09:21:20;13.07;;;4.30;;
1563;SDS011;775;51.958;7.976;2023-03-14T09:23:47;11.80;;;3.57;;
1563;SDS011;775;51.958;7.976;2023-03-14T09:26:14;11.40;;;3.60;;
1563;SDS011;775;51.958;7.976;2023-03-14T09:28:42;14.10;;;4.40;;
1563;SDS011;775;51.958;7.976;2023-03-14T09:31:09;12.77;;;3.70;;
1563;SDS011;775;51.958;7.976;2023-03-14T09:33:37;11.67;;;3.50;;
1563;SDS011;775;51.958;7.976;2023-03-14T09:36:04;12.10;;;3.53;;
1563;SDS011;775;51.958;7.976;2023-03-14T09:38:33;11.30;;;3.20;;
1563;SDS011;775;51.958;7.976;2023-03-14T09:41:01;11.63;;;3.07;;
1563;SDS011;775;51.958;7.976;2023-03-14T09:43:29;11.47;;;3.03;;
1563;SDS011;775;51.958;7.976;2023-03-14T09:45:58;11.17;;;3.20;;
1563;SDS011;775;51.958;7.976;2023-03-14T09:48:29;12.27;;;3.40;;
1563;SDS011;775;51.958;7.976;2023-03-14T09:50:56;11.00;;;3.10;;
1563;SDS011;775;51.958;7.976;2023-03-14T09:53:25;11.83;;;3.63;;
1563;SDS011;775;51.958;7.976;2023-03-14T09:55:54;12.43;;;3.80;;
1563;SDS011;775;51.958;7.976;2023-03-14T09:58:24;11.93;;;3.80;;
1563;SDS011;775;51.958;7.976;2023-03-14T10:00:53;11.53;;;3.53;;
1563;SDS011;775;51.958;7.976;2023-03-14T10:03:24;12.47;;;3.97;;
1563;SDS011;775;51.958;7.976;2023-03-14T10:05:51;11.10;;;2.30;;
1563;SDS011;775;51.958;7.976;2023-03-14T10:08:19;10.40;;;1.97;;
1563;SDS011;775;51.958;7.976;2023-03-14T10:10:46;10.13;;;1.67;;
1563;SDS011;775;51.958;7.976;2023-03-14T10:13:16;10.60;;;1.20;;
1563;SDS011;775;51.958;7.976;2023-03-14T10:15:47;10.23;;;1.30;;
1563;SDS011;775;51.958;7.976;2023-03-14T10:18:14;11.43;;;1.30;;
1563;SDS011;775;51.958;7.976;2023-03-14T10:20:42;10.00;;;1.00;;
1563;SDS011;775;51.958;7.976;2023-03-14T10:23:19;10.60;;;1.00;;
1563;SDS011;775;51.958;7.976;2023-03-14T10:25:58;10.83;;;1.20;;
1563;SDS011;775;51.958;7.976;2023-03-14T10:28:27;10.07;;;1.13;;
1563;SDS011;775;51.958;7.976;2023-03-14T10:30:58;10.13;;;0.90;;
1563;SDS011;775;51.958;7.976;2023-03-14T10:33:26;9.97;;;1.20;;
1563;SDS011;775;51.958;7.976;2023-03-14T10:35:54;12.00;;;1.33;;
1563;SDS011;775;51.958;7.976;2023-03-14T10:38:22;9.87;;;1.00;;
1563;SDS011;775;51.958;7.976;2023-03-14T10:40:50;9.93;;;1.00;;
1563;SDS011;775;51.958;7.976;2023-03-14T10:43:18;10.00;;;1.00;;
1563;SDS011;775;51.958;7.976;2023-03-14T10:45:52;9.97;;;0.80;;
1563;SDS011;775;51.958;7.976;2023-03-14T10:48:23;10.00;;;1.00;;
1563;SDS011;775;51.958;7.976;2023-03-14T10:50:54;10.30;;;1.40;;
1563;SDS011;775;51.958;7.976;2023-03-14T10:53:22;10.07;;;1.10;;
1563;SDS011;775;51.958;7.976;2023-03-14T10:55:50;11.03;;;1.20;;
1563;SDS011;775;51.958;7.976;2023-03-14T10:58:18;9.93;;;1.03;;
1563;SDS011;775;51.958;7.976;2023-03-14T11:00:45;10.13;;;1.10;;
1563;SDS011;775;51.958;7.976;2023-03-14T11:03:15;10.60;;;1.17;;
1563;SDS011;775;51.958;7.976;2023-03-14T11:05:46;10.03;;;0.90;;
1563;SDS011;775;51.958;7.976;2023-03-14T11:08:18;10.30;;;1.00;;
1563;SDS011;775;51.958;7.976;2023-03-14T11:10:46;10.13;;;1.00;;
1563;SDS011;775;51.958;7.976;2023-03-14T11:13:16;10.17;;;0.80;;
1563;SDS011;775;51.958;7.976;2023-03-14T11:15:46;10.10;;;0.80;;
1563;SDS011;775;51.958;7.976;2023-03-14T11:21:05;10.17;;;0.90;;
1563;SDS011;775;51.958;7.976;2023-03-14T11:23:38;10.30;;;0.93;;
1563;SDS011;775;51.958;7.976;2023-03-14T11:26:09;10.77;;;0.97;;
1563;SDS011;775;51.958;7.976;2023-03-14T11:28:41;10.27;;;0.90;;
1563;SDS011;775;51.958;7.976;2023-03-14T11:31:13;11.50;;;1.10;;
1563;SDS011;775;51.958;7.976;2023-03-14T11:33:46;10.37;;;0.90;;
1563;SDS011;775;51.958;7.976;2023-03-14T11:36:16;11.47;;;1.13;;
1563;SDS011;775;51.958;7.976;2023-03-14T11:38:46;12.70;;;1.10;;
1563;SDS011;775;51.958;7.976;2023-03-14T11:41:15;10.80;;;0.97;;
1563;SDS011;775;51.958;7.976;2023-03-14T11:43:45;10.50;;;0.90;;
1563;SDS011;775;51.958;7.976;2023-03-14T11:46:14;14.10;;;1.20;;
1563;SDS011;775;51.958;7.976;2023-03-14T11:48:44;10.37;;;1.07;;
1563;SDS011;775;51.958;7.976;2023-03-14T11:51:15;15.30;;;1.60;;
1563;SDS011;775;51.958;7.976;2023-03-14T11:53:49;11.43;;;1.30;;
1563;SDS011;775;51.958;7.976;2023-03-14T11:56:18;13.23;;;1.50;;
1563;SDS011;775;51.958;7.976;2023-03-14T11:58:48;16.03;;;1.80;;
1563;SDS011;775;51.958;7.976;2023-03-14T12:01:16;12.60;;;1.40;;
1563;SDS011;775;51.958;7.976;2023-03-14T12:03:49;13.40;;;1.30;;
1563;SDS011;775;51.958;7.976;2023-03-14T12:06:23;14.03;;;1.70;;
1563;SDS011;775;51.958;7.976;2023-03-14T12:08:52;14.90;;;1.30;;
1563;SDS011;775;51.958;7.976;2023-03-14T12:11:30;13.60;;;1.60;;
1563;SDS011;775;51.958;7.976;2023-03-14T12:13:58;13.03;;;1.30;;
1563;SDS011;775;51.958;7.976;2023-03-14T12:16:35;12.23;;;1.27;;
1563;SDS011;775;51.958;7.976;2023-03-14T12:19:24;14.60;;;1.90;;
1563;SDS011;775;51.958;7.976;2023-03-14T12:21:54;15.80;;;1.63;;
1563;SDS011;775;51.958;7.976;2023-03-14T12:24:23;14.07;;;2.03;;
1563;SDS011;775;51.958;7.976;2023-03-14T12:26:52;14.10;;;2.10;;
1563;SDS011;775;51.958;7.976;2023-03-14T12:29:20;12.90;;;1.67;;
1563;SDS011;775;51.958;7.976;2023-03-14T12:31:47;18.10;;;1.80;;
1563;SDS011;775;51.958;7.976;2023-03-14T12:34:24;12.10;;;1.37;;
1563;SDS011;775;51.958;7.976;2023-03-14T12:36:56;11.67;;;1.40;;
1563;SDS011;775;51.958;7.976;2023-03-14T12:39:31;13.30;;;1.70;;
1563;SDS011;775;51.958;7.976;2023-03-14T12:42:01;12.40;;;1.30;;
1563;SDS011;775;51.958;7.976;2023-03-14T12:44:42;12.07;;;1.50;;
1563;SDS011;775;51.958;7.976;2023-03-14T12:50:14;12.50;;;1.67;;
1563;SDS011;775;51.958;7.976;2023-03-14T12:52:44;16.93;;;1.97;;
1563;SDS011;775;51.958;7.976;2023-03-14T12:55:13;14.83;;;1.80;;
1563;SDS011;775;51.958;7.976;2023-03-14T12:57:44;17.83;;;2.00;;
1563;SDS011;775;51.958;7.976;2023-03-14T13:00:16;13.83;;;1.70;;
1563;SDS011;775;51.958;7.976;2023-03-14T13:02:44;13.67;;;1.80;;
1563;SDS011;775;51.958;7.976;2023-03-14T13:05:14;16.27;;;1.97;;
1563;SDS011;775;51.958;7.976;2023-03-14T13:10:48;14.43;;;2.20;;
1563;SDS011;775;51.958;7.976;2023-03-14T13:13:17;17.40;;;2.40;;
1563;SDS011;775;51.958;7.976;2023-03-14T13:15:45;22.87;;;2.87;;
1563;SDS011;775;51.958;7.976;2023-03-14T13:18:13;16.13;;;2.50;;
1563;SDS011;775;51.958;7.976;2023-03-14T13:20:41;19.27;;;2.67;;
1563;SDS011;775;51.958;7.976;2023-03-14T13:23:19;22.47;;;2.43;;
1563;SDS011;775;51.958;7.976;2023-03-14T13:25:48;20.20;;;2.20;;
1563;SDS011;775;51.958;7.976;2023-03-14T13:28:15;23.90;;;2.10;;
1563;SDS011;775;51.958;7.976;2023-03-14T13:30:43;20.03;;;2.43;;
1563;SDS011;775;51.958;7.976;2023-03-14T13:33:12;19.67;;;2.60;;
1563;SDS011;775;51.958;7.976;2023-03-14T13:35:40;25.80;;;3.33;;
1563;SDS011;775;51.958;7.976;2023-03-14T13:38:13;19.67;;;2.40;;
1563;SDS011;775;51.958;7.976;2023-03-14T13:40:42;21.43;;;3.13;;
1563;SDS011;775;51.958;7.976;2023-03-14T13:43:21;15.60;;;2.50;;
1563;SDS011;775;51.958;7.976;2023-03-14T13:45:51;16.80;;;2.60;;
1563;SDS011;775;51.958;7.976;2023-03-14T13:48:18;20.40;;;3.03;;
1563;SDS011;775;51.958;7.976;2023-03-14T13:50:49;18.90;;;2.87;;
1563;SDS011;775;51.958;7.976;2023-03-14T13:53:16;18.00;;;3.00;;
1563;SDS011;775;51.958;7.976;2023-03-14T13:55:44;14.03;;;1.90;;
1563;SDS011;775;51.958;7.976;2023-03-14T13:58:23;20.13;;;3.13;;
1563;SDS011;775;51.958;7.976;2023-03-14T14:00:54;16.80;;;2.63;;
1563;SDS011;775;51.958;7.976;2023-03-14T14:03:22;16.37;;;2.53;;
1563;SDS011;775;51.958;7.976;2023-03-14T14:05:49;17.43;;;2.40;;
1563;SDS011;775;51.958;7.976;2023-03-14T14:08:16;21.63;;;2.80;;
1563;SDS011;775;51.958;7.976;2023-03-14T14:10:43;20.73;;;2.43;;
1563;SDS011;775;51.958;7.976;2023-03-14T14:13:13;17.53;;;2.90;;
1563;SDS011;775;51.958;7.976;2023-03-14T14:15:45;20.43;;;3.00;;
1563;SDS011;775;51.958;7.976;2023-03-14T14:18:13;19.00;;;2.43;;
1563;SDS011;775;51.958;7.976;2023-03-14T14:20:44;12.47;;;2.00;;
1563;SDS011;775;51.958;7.976;2023-03-14T14:23:12;23.03;;;2.53;;
1563;SDS011;775;51.958;7.976;2023-03-14T14:25:40;17.27;;;2.80;;
1563;SDS011;775;51.958;7.976;2023-03-14T14:28:17;15.17;;;2.43;;
1563;SDS011;775;51.958;7.976;2023-03-14T14:30:45;12.50;;;1.77;;
1563;SDS011;775;51.958;7.976;2023-03-14T14:33:19;16.77;;;2.07;;
1563;SDS011;775;51.958;7.976;2023-03-14T14:35:50;17.33;;;2.80;;
1563;SDS011;775;51.958;7.976;2023-03-14T14:38:17;15.40;;;2.60;;
1563;SDS011;775;51.958;7.976;2023-03-14T14:40:46;11.93;;;2.30;;
1563;SDS011;775;51.958;7.976;2023-03-14T14:43:15;14.33;;;1.97;;
1563;SDS011;775;51.958;7.976;2023-03-14T14:45:43;15.13;;;1.90;;
1563;SDS011;775;51.958;7.976;2023-03-14T14:48:13;21.17;;;2.93;;
1563;SDS011;775;51.958;7.976;2023-03-14T14:50:48;14.63;;;2.03;;
1563;SDS011;775;51.958;7.976;2023-03-14T14:53:21;12.60;;;2.30;;
1563;SDS011;775;51.958;7.976;2023-03-14T14:55:49;12.70;;;2.60;;
1563;SDS011;775;51.958;7.976;2023-03-14T14:58:18;20.00;;;2.27;;
1563;SDS011;775;51.958;7.976;2023-03-14T15:00:50;13.00;;;2.03;;
1563;SDS011;775;51.958;7.976;2023-03-14T15:03:19;14.73;;;2.17;;
1563;SDS011;775;51.958;7.976;2023-03-14T15:05:46;15.27;;;2.03;;
1563;SDS011;775;51.958;7.976;2023-03-14T15:08:14;11.93;;;1.70;;
1563;SDS011;775;51.958;7.976;2023-03-14T15:10:41;16.80;;;2.40;;
1563;SDS011;775;51.958;7.976;2023-03-14T15:13:08;14.77;;;2.60;;
1563;SDS011;775;51.958;7.976;2023-03-14T15:15:35;12.47;;;1.87;;
1563;SDS011;775;51.958;7.976;2023-03-14T15:18:04;14.03;;;2.20;;
1563;SDS011;775;51.958;7.976;2023-03-14T15:20:37;11.20;;;1.80;;
1563;SDS011;775;51.958;7.976;2023-03-14T15:23:04;12.90;;;1.70;;
1563;SDS011;775;51.958;7.976;2023-03-14T15:25:34;14.70;;;2.00;;
1563;SDS011;775;51.958;7.976;2023-03-14T15:28:02;16.50;;;1.87;;
1563;SDS011;775;51.958;7.976;2023-03-14T15:30:29;12.40;;;1.37;;
1563;SDS011;775;51.958;7.976;2023-03-14T15:32:56;16.90;;;2.30;;